Time;durP1;ratioP1;P1;durP2;ratioP2;P2;SDS_P1;SDS_P2;PMS_P1;PMS_P2;Temp;Humidity;BMP_temperature;BMP_pressure;BME280_temperature;BME280_humidity;BME280_pressure;Samples;Min_cycle;Max_cycle;Signal;HPM_P1;HPM_P2
2023/04/20 00:00:16;;;;;;;7.20;6.60;;;14.00;99.90;;;;;;4975607;28;20051;-90
2023/04/20 00:02:42;;;;;;;7.40;6.65;;;13.80;99.90;;;;;;4975696;28;20053;-90
2023/04/20 00:05:09;;;;;;;7.28;6.38;;;13.80;99.90;;;;;;4975281;28;20468;-91
2023/04/20 00:07:35;;;;;;;8.75;6.53;;;14.10;99.90;;;;;;4975702;28;20114;-91
2023/04/20 00:10:02;;;;;;;7.43;6.60;;;14.00;99.90;;;;;;4974151;28;20035;-90
2023/04/20 00:12:28;;;;;;;8.15;6.85;;;13.80;99.90;;;;;;4974234;28;20039;-91
2023/04/20 00:14:54;;;;;;;7.05;6.38;;;13.80;99.90;;;;;;4974349;28;20391;-91
2023/04/20 00:17:21;;;;;;;8.65;7.10;;;13.80;99.90;;;;;;4975540;28;20120;-91
2023/04/20 00:19:46;;;;;;;8.13;6.82;;;13.30;99.90;;;;;;4974121;28;20251;-91
2023/04/20 00:22:12;;;;;;;7.85;6.97;;;13.10;99.90;;;;;;4974008;28;20496;-90
2023/04/20 00:24:38;;;;;;;7.97;6.82;;;13.20;99.90;;;;;;4973895;28;20030;-91
2023/04/20 00:27:04;;;;;;;8.07;7.28;;;13.40;99.90;;;;;;4975245;28;20027;-90
2023/04/20 00:29:29;;;;;;;9.82;7.20;;;13.50;99.90;;;;;;4975197;28;20027;-91
2023/04/20 00:31:55;;;;;;;8.13;7.05;;;13.10;99.90;;;;;;4975104;28;20041;-90
2023/04/20 00:34:21;;;;;;;7.88;7.05;;;12.90;99.90;;;;;;4974218;28;20114;-90
2023/04/20 00:36:46;;;;;;;7.30;6.60;;;13.10;99.90;;;;;;4975029;28;20019;-91
2023/04/20 00:39:12;;;;;;;9.75;7.20;;;13.00;99.90;;;;;;4974696;28;20031;-91
2023/04/20 00:41:38;;;;;;;7.47;6.78;;;12.90;99.90;;;;;;4974710;28;20110;-91
2023/04/20 00:44:06;;;;;;;7.53;6.72;;;13.10;99.90;;;;;;4975481;28;20027;-90
2023/04/20 00:46:31;;;;;;;9.82;6.70;;;13.20;99.90;;;;;;4974720;28;20030;-91
2023/04/20 00:48:58;;;;;;;7.82;7.05;;;13.00;99.90;;;;;;4974194;28;20051;-91
2023/04/20 00:51:24;;;;;;;7.95;7.22;;;13.30;99.90;;;;;;4974777;28;20052;-91
2023/04/20 00:53:49;;;;;;;8.05;7.25;;;13.30;99.90;;;;;;4974469;28;20027;-91
2023/04/20 00:56:16;;;;;;;7.50;6.63;;;13.20;99.90;;;;;;4974703;28;20547;-91
2023/04/20 00:58:44;;;;;;;9.68;7.70;;;12.80;99.90;;;;;;4974276;28;20126;-90
2023/04/20 01:01:11;;;;;;;7.65;6.85;;;13.00;99.90;;;;;;4975212;28;20081;-90
2023/04/20 01:03:38;;;;;;;8.05;7.25;;;12.90;99.90;;;;;;4974019;28;20038;-91
2023/04/20 01:06:05;;;;;;;9.82;6.78;;;12.70;99.90;;;;;;4974698;28;20492;-91
2023/04/20 01:08:31;;;;;;;8.80;7.13;;;12.80;99.90;;;;;;4974426;28;20038;-90
2023/04/20 01:10:56;;;;;;;8.40;7.15;;;12.90;99.90;;;;;;4973710;28;20035;-91
2023/04/20 01:13:22;;;;;;;9.45;6.97;;;12.90;99.90;;;;;;4974527;28;20027;-90
2023/04/20 01:15:48;;;;;;;8.90;6.70;;;12.90;99.90;;;;;;4974350;28;20023;-91
2023/04/20 01:18:16;;;;;;;7.90;7.20;;;12.70;99.90;;;;;;4973854;28;20030;-90
2023/04/20 01:20:42;;;;;;;7.60;6.90;;;12.80;99.90;;;;;;4974188;28;20435;-90
2023/04/20 01:23:08;;;;;;;8.18;7.30;;;12.80;99.90;;;;;;4974225;28;20106;-91
2023/04/20 01:25:34;;;;;;;7.30;6.60;;;12.80;99.90;;;;;;4974608;28;20453;-90
2023/04/20 01:28:00;;;;;;;8.73;7.40;;;12.70;99.90;;;;;;4974088;28;20483;-90
2023/04/20 01:30:26;;;;;;;8.32;7.22;;;12.40;99.90;;;;;;4972972;28;20400;-90
2023/04/20 01:32:52;;;;;;;8.10;7.28;;;12.00;99.90;;;;;;4972413;28;20022;-90
2023/04/20 01:35:17;;;;;;;8.73;6.57;;;11.90;99.90;;;;;;4973937;28;20045;-90
2023/04/20 01:37:43;;;;;;;8.00;6.75;;;12.00;99.90;;;;;;4973898;28;20490;-91
2023/04/20 01:40:11;;;;;;;8.07;6.90;;;12.30;99.90;;;;;;4974358;28;20494;-91
2023/04/20 01:42:37;;;;;;;8.10;7.30;;;12.50;99.90;;;;;;4973942;28;20062;-90
2023/04/20 01:45:07;;;;;;;8.10;6.75;;;12.70;99.90;;;;;;4972459;28;20480;-90
2023/04/20 01:47:33;;;;;;;7.55;6.82;;;12.40;99.90;;;;;;4973260;28;20023;-91
2023/04/20 01:49:58;;;;;;;7.53;6.82;;;12.30;99.90;;;;;;4973686;28;20035;-90
2023/04/20 01:52:24;;;;;;;7.32;6.63;;;12.40;99.90;;;;;;4973846;28;20031;-90
2023/04/20 01:54:50;;;;;;;7.57;6.80;;;12.50;99.90;;;;;;4974280;28;20031;-91
2023/04/20 01:57:15;;;;;;;8.15;7.32;;;12.40;99.90;;;;;;4973714;28;20484;-90
2023/04/20 01:59:41;;;;;;;11.55;7.50;;;12.30;99.90;;;;;;4973581;28;20050;-90
2023/04/20 02:02:07;;;;;;;8.05;7.25;;;12.40;99.90;;;;;;4972373;28;20038;-91
2023/04/20 02:04:32;;;;;;;7.95;7.15;;;12.30;99.90;;;;;;4974081;28;20113;-91
2023/04/20 02:06:58;;;;;;;9.20;7.18;;;12.40;99.90;;;;;;4974068;28;20031;-90
2023/04/20 02:09:23;;;;;;;7.53;6.82;;;12.50;99.90;;;;;;4973620;28;20027;-91
2023/04/20 02:11:49;;;;;;;7.93;7.13;;;12.50;99.90;;;;;;4972755;28;20045;-91
2023/04/20 02:14:15;;;;;;;7.95;7.15;;;12.10;99.90;;;;;;4973666;28;20472;-90
2023/04/20 02:16:41;;;;;;;8.50;7.60;;;11.90;99.90;;;;;;4972254;28;20038;-90
2023/04/20 02:19:07;;;;;;;7.82;6.97;;;12.00;99.90;;;;;;4973547;28;20023;-90
2023/04/20 02:21:33;;;;;;;8.68;7.32;;;12.10;99.90;;;;;;4973502;28;20053;-90
2023/04/20 02:23:59;;;;;;;7.95;7.15;;;12.10;99.90;;;;;;4973461;28;20026;-91
2023/04/20 02:26:24;;;;;;;7.65;6.88;;;11.90;99.90;;;;;;4973568;28;20023;-91
2023/04/20 02:28:50;;;;;;;10.25;7.60;;;11.80;99.90;;;;;;4973917;28;20099;-90
2023/04/20 02:31:15;;;;;;;8.13;7.05;;;11.70;99.90;;;;;;4972042;28;20085;-90
2023/04/20 02:33:41;;;;;;;9.07;7.30;;;11.90;99.90;;;;;;4973374;28;20023;-90
2023/04/20 02:36:07;;;;;;;8.57;7.10;;;12.20;99.90;;;;;;4973431;28;20030;-90
2023/04/20 02:38:33;;;;;;;8.77;6.93;;;12.20;99.90;;;;;;4973480;28;20027;-90
2023/04/20 02:40:58;;;;;;;8.43;7.25;;;11.90;99.90;;;;;;4972438;28;20037;-91
2023/04/20 02:43:24;;;;;;;8.10;7.30;;;11.70;99.90;;;;;;4972370;28;20019;-90
2023/04/20 02:45:50;;;;;;;8.38;7.13;;;11.50;99.90;;;;;;4966866;28;20126;-90
2023/04/20 02:48:15;;;;;;;8.25;6.95;;;11.00;99.90;;;;;;4954297;29;20035;-91
2023/04/20 02:50:42;;;;;;;7.97;7.18;;;11.20;99.90;;;;;;4954351;29;20035;-90
2023/04/20 02:53:07;;;;;;;8.38;7.03;;;11.60;99.90;;;;;;4953956;29;20420;-90
2023/04/20 02:55:33;;;;;;;7.78;6.97;;;11.70;99.90;;;;;;4954168;29;20043;-90
2023/04/20 02:57:59;;;;;;;8.48;6.88;;;11.70;99.90;;;;;;4954575;28;20032;-90
2023/04/20 03:00:25;;;;;;;8.25;7.45;;;11.50;99.90;;;;;;4976399;28;20033;-90
2023/04/20 03:02:50;;;;;;;8.63;6.93;;;11.30;99.90;;;;;;4976608;28;20391;-90
2023/04/20 03:05:16;;;;;;;8.30;7.38;;;11.40;99.90;;;;;;4977051;28;20095;-91
2023/04/20 03:07:42;;;;;;;8.70;7.40;;;11.20;99.90;;;;;;4976642;28;20027;-92
2023/04/20 03:10:08;;;;;;;7.90;7.20;;;11.40;99.90;;;;;;4976626;28;20118;-93
2023/04/20 03:12:34;;;;;;;8.43;7.00;;;11.70;99.90;;;;;;4975648;28;20114;-92
2023/04/20 03:15:00;;;;;;;8.32;7.53;;;11.60;99.90;;;;;;4976102;28;20037;-92
2023/04/20 03:17:26;;;;;;;7.82;7.10;;;11.20;99.90;;;;;;4975759;28;20527;-92
2023/04/20 03:19:51;;;;;;;10.30;7.68;;;11.10;99.90;;;;;;4976462;28;20037;-93
2023/04/20 03:22:20;;;;;;;12.55;7.30;;;10.90;99.90;;;;;;4976545;28;20037;-93
2023/04/20 03:24:46;;;;;;;14.30;8.10;;;10.80;99.90;;;;;;4976620;28;20061;-93
2023/04/20 03:27:12;;;;;;;9.93;7.20;;;10.50;99.90;;;;;;4975082;28;20399;-89
2023/04/20 03:29:38;;;;;;;11.68;8.00;;;10.90;99.90;;;;;;4975696;28;20030;-93
2023/04/20 03:32:03;;;;;;;9.57;7.65;;;10.80;99.90;;;;;;4976382;28;20030;-92
2023/04/20 03:34:29;;;;;;;11.45;7.53;;;10.90;99.90;;;;;;4975945;28;20019;-93
2023/04/20 03:36:55;;;;;;;8.88;7.82;;;11.30;99.90;;;;;;4975525;28;20506;-92
2023/04/20 03:39:20;;;;;;;9.40;6.95;;;11.30;99.90;;;;;;4974737;28;20030;-92
2023/04/20 03:41:46;;;;;;;10.15;7.45;;;11.50;99.90;;;;;;4976406;28;20034;-93
2023/04/20 03:44:13;;;;;;;9.30;7.90;;;11.10;99.90;;;;;;4975130;28;20122;-92
2023/04/20 03:46:39;;;;;;;10.77;7.80;;;10.80;99.90;;;;;;4974835;28;20022;-92
2023/04/20 03:49:05;;;;;;;10.27;7.90;;;10.90;99.90;;;;;;4974762;28;20031;-92
2023/04/20 03:51:31;;;;;;;10.38;8.05;;;11.20;99.90;;;;;;4976040;28;20042;-92
2023/04/20 03:53:57;;;;;;;8.25;7.40;;;11.10;99.90;;;;;;4975910;28;20030;-92
2023/04/20 03:56:22;;;;;;;8.77;7.88;;;10.80;99.90;;;;;;4975789;28;20019;-93
2023/04/20 03:58:48;;;;;;;8.55;7.28;;;10.80;99.90;;;;;;4975566;28;20050;-92
2023/04/20 04:01:14;;;;;;;8.00;7.22;;;11.00;99.90;;;;;;4975907;28;20041;-92
2023/04/20 04:03:40;;;;;;;8.55;7.65;;;11.20;99.90;;;;;;4975878;28;20026;-92
2023/04/20 04:06:06;;;;;;;10.02;7.97;;;11.40;99.90;;;;;;4975507;28;20117;-92
2023/04/20 04:08:32;;;;;;;10.07;7.57;;;11.30;99.90;;;;;;4974367;28;20476;-91
2023/04/20 04:10:58;;;;;;;9.75;7.97;;;11.20;99.90;;;;;;4975222;28;20069;-92
2023/04/20 04:13:24;;;;;;;11.38;7.88;;;11.30;99.90;;;;;;4974230;28;20475;-92
2023/04/20 04:15:49;;;;;;;10.07;7.47;;;11.20;99.90;;;;;;4974393;28;20082;-93
2023/04/20 04:18:15;;;;;;;9.43;7.82;;;11.40;99.90;;;;;;4975790;28;20027;-92
2023/04/20 04:20:41;;;;;;;10.10;8.15;;;11.50;99.90;;;;;;4974328;28;20034;-92
2023/04/20 04:23:06;;;;;;;8.88;7.35;;;11.70;99.90;;;;;;4975431;28;20494;-93
2023/04/20 04:25:32;;;;;;;11.05;8.18;;;11.80;99.90;;;;;;4975761;28;20031;-92
2023/04/20 04:27:58;;;;;;;11.77;7.97;;;11.50;99.90;;;;;;4973707;28;20025;-92
2023/04/20 04:30:24;;;;;;;10.75;7.50;;;11.40;99.90;;;;;;4975076;28;20507;-92
2023/04/20 04:32:50;;;;;;;11.88;7.47;;;11.50;99.90;;;;;;4975414;28;20041;-91
2023/04/20 04:35:16;;;;;;;10.05;7.55;;;11.50;99.90;;;;;;4975380;28;20460;-92
2023/04/20 04:37:42;;;;;;;10.13;7.57;;;11.50;99.90;;;;;;4975164;28;20023;-92
2023/04/20 04:40:08;;;;;;;14.10;9.77;;;11.50;99.90;;;;;;4973904;28;20495;-93
2023/04/20 04:42:36;;;;;;;12.90;10.18;;;11.20;99.90;;;;;;4974464;28;20031;-93
2023/04/20 04:45:03;;;;;;;12.90;11.07;;;11.30;99.90;;;;;;4975302;28;20037;-91
2023/04/20 04:47:33;;;;;;;12.52;11.15;;;11.40;99.90;;;;;;4974668;28;20023;-92
2023/04/20 04:50:00;;;;;;;14.68;11.88;;;11.10;99.90;;;;;;4973587;28;20058;-93
2023/04/20 04:52:27;;;;;;;12.50;10.95;;;11.20;99.90;;;;;;4974843;28;20041;-92
2023/04/20 04:54:52;;;;;;;15.02;12.68;;;11.40;99.90;;;;;;4974443;28;20037;-92
2023/04/20 04:57:18;;;;;;;14.85;12.48;;;11.10;99.90;;;;;;4974795;28;20105;-92
2023/04/20 04:59:44;;;;;;;15.18;12.05;;;11.00;99.90;;;;;;4974217;28;20055;-92
2023/04/20 05:02:10;;;;;;;14.23;12.10;;;11.20;99.90;;;;;;4974550;28;20031;-93
2023/04/20 05:04:35;;;;;;;12.93;11.50;;;11.40;99.90;;;;;;4974547;28;20034;-92
2023/04/20 05:07:01;;;;;;;14.25;12.05;;;11.50;99.90;;;;;;4974594;28;20030;-92
2023/04/20 05:09:32;;;;;;;16.02;12.48;;;11.40;99.90;;;;;;4974059;28;20034;-93
2023/04/20 05:11:59;;;;;;;17.80;12.90;;;11.30;99.90;;;;;;4974231;28;20219;-92
2023/04/20 05:14:25;;;;;;;15.50;12.30;;;11.50;99.90;;;;;;4974269;28;20027;-92
2023/04/20 05:16:51;;;;;;;14.25;11.65;;;11.40;99.90;;;;;;4974707;28;20429;-92
2023/04/20 05:19:17;;;;;;;16.15;11.98;;;11.30;99.90;;;;;;4974342;28;20026;-93
2023/04/20 05:21:43;;;;;;;14.82;12.13;;;11.20;99.90;;;;;;4973820;28;20051;-92
2023/04/20 05:24:08;;;;;;;13.85;12.35;;;11.20;99.90;;;;;;4973058;28;20058;-92
2023/04/20 05:26:34;;;;;;;14.55;13.00;;;11.20;99.90;;;;;;4973205;28;20026;-92
2023/04/20 05:29:00;;;;;;;16.27;13.48;;;11.00;99.90;;;;;;4974677;28;20027;-93
2023/04/20 05:31:26;;;;;;;15.73;12.50;;;11.20;99.90;;;;;;4972589;28;20135;-92
2023/04/20 05:33:52;;;;;;;15.82;13.52;;;11.20;99.90;;;;;;4974552;28;20057;-91
2023/04/20 05:36:17;;;;;;;15.77;13.43;;;11.10;99.90;;;;;;4969057;28;20062;-92
2023/04/20 05:38:43;;;;;;;14.93;13.10;;;10.90;99.90;;;;;;4973505;28;20101;-93
2023/04/20 05:41:09;;;;;;;15.32;13.38;;;11.00;99.90;;;;;;4974562;28;20399;-92
2023/04/20 05:43:34;;;;;;;20.58;13.93;;;11.10;99.90;;;;;;4974121;28;20531;-92
2023/04/20 05:46:02;;;;;;;17.25;13.00;;;11.10;99.90;;;;;;4980072;28;20105;-92
2023/04/20 05:48:28;;;;;;;16.55;13.48;;;11.30;99.90;;;;;;4993290;28;20077;-92
2023/04/20 05:50:54;;;;;;;17.35;14.43;;;11.40;99.90;;;;;;4992551;28;20034;-92
2023/04/20 05:53:20;;;;;;;19.30;14.15;;;11.40;99.90;;;;;;4992068;28;20046;-92
2023/04/20 05:55:46;;;;;;;18.23;14.63;;;11.40;99.90;;;;;;4993607;28;20068;-93
2023/04/20 05:58:11;;;;;;;15.15;13.55;;;11.20;99.90;;;;;;4990101;28;20086;-92
2023/04/20 06:00:37;;;;;;;17.55;14.50;;;11.50;99.90;;;;;;4974237;28;20058;-92
2023/04/20 06:03:03;;;;;;;17.48;13.55;;;11.20;99.90;;;;;;4970735;28;20102;-91
2023/04/20 06:05:29;;;;;;;19.65;14.77;;;11.40;99.90;;;;;;4964819;28;20501;-92
2023/04/20 06:07:54;;;;;;;17.60;13.85;;;11.60;99.90;;;;;;4959183;28;20023;-91
2023/04/20 06:10:20;;;;;;;17.50;14.38;;;11.50;99.90;;;;;;4959189;28;20117;-90
2023/04/20 06:12:46;;;;;;;17.25;14.45;;;11.50;99.90;;;;;;4959322;28;20031;-90
2023/04/20 06:15:12;;;;;;;18.55;14.43;;;11.50;99.90;;;;;;4967877;28;20128;-90
2023/04/20 06:17:39;;;;;;;21.58;15.20;;;11.50;99.90;;;;;;4955256;28;20488;-89
2023/04/20 06:20:09;;;;;;;18.13;14.57;;;11.40;99.90;;;;;;4966643;28;20543;-89
2023/04/20 06:22:36;;;;;;;19.35;15.23;;;11.30;99.90;;;;;;4973476;28;20046;-89
2023/04/20 06:25:02;;;;;;;17.95;14.77;;;11.20;99.90;;;;;;4961137;28;20031;-89
2023/04/20 06:27:27;;;;;;;18.85;15.20;;;11.40;99.90;;;;;;4969730;28;20097;-89
2023/04/20 06:29:53;;;;;;;17.55;15.02;;;11.60;99.90;;;;;;4972251;28;20031;-89
2023/04/20 06:32:19;;;;;;;19.92;15.00;;;11.60;99.90;;;;;;4971936;28;20480;-93
2023/04/20 06:34:46;;;;;;;18.67;14.93;;;11.40;99.90;;;;;;4977364;28;20029;-91
2023/04/20 06:37:12;;;;;;;18.75;14.90;;;11.50;99.90;;;;;;4974283;28;20089;-90
2023/04/20 06:39:38;;;;;;;20.95;14.63;;;11.60;99.90;;;;;;4959529;28;20027;-90
2023/04/20 06:42:03;;;;;;;18.23;15.35;;;11.70;99.90;;;;;;4969281;28;20117;-92
2023/04/20 06:44:29;;;;;;;17.27;14.88;;;11.80;99.90;;;;;;4958809;28;20035;-89
2023/04/20 06:46:55;;;;;;;18.40;15.18;;;11.70;99.90;;;;;;4971572;28;20023;-89
2023/04/20 06:49:20;;;;;;;16.83;14.73;;;11.70;99.90;;;;;;4976371;28;20027;-90
2023/04/20 06:51:46;;;;;;;16.25;14.15;;;11.60;99.90;;;;;;4976676;28;20128;-90
2023/04/20 06:54:12;;;;;;;18.05;15.85;;;11.50;99.90;;;;;;4977144;28;20051;-90
2023/04/20 06:56:37;;;;;;;19.48;14.60;;;11.80;99.90;;;;;;4976099;28;20061;-90
2023/04/20 06:59:03;;;;;;;16.98;14.45;;;11.90;99.90;;;;;;4967854;28;20050;-90
2023/04/20 07:01:28;;;;;;;18.40;15.07;;;11.90;99.90;;;;;;4957579;29;20453;-90
2023/04/20 07:03:54;;;;;;;19.20;14.80;;;12.20;99.90;;;;;;4957696;29;20106;-90
2023/04/20 07:06:20;;;;;;;18.88;14.63;;;12.20;99.90;;;;;;4939984;29;20031;-90
2023/04/20 07:08:46;;;;;;;17.70;14.88;;;12.00;99.90;;;;;;4958020;29;20047;-90
2023/04/20 07:11:11;;;;;;;18.85;15.25;;;11.80;99.90;;;;;;4957334;29;20492;-90
2023/04/20 07:13:37;;;;;;;17.80;14.02;;;11.90;99.90;;;;;;4957120;29;20024;-90
2023/04/20 07:16:03;;;;;;;16.08;14.38;;;11.70;99.90;;;;;;4940376;29;20037;-90
2023/04/20 07:18:28;;;;;;;16.98;14.85;;;11.60;99.90;;;;;;4957332;29;20086;-90
2023/04/20 07:20:54;;;;;;;16.83;14.63;;;11.60;99.90;;;;;;4940517;29;20118;-90
2023/04/20 07:23:20;;;;;;;16.92;15.13;;;11.50;99.90;;;;;;4957126;29;20019;-90
2023/04/20 07:25:46;;;;;;;17.17;15.27;;;11.50;99.90;;;;;;4957142;29;20035;-90
2023/04/20 07:28:12;;;;;;;17.15;14.75;;;11.50;99.90;;;;;;4940181;29;20071;-90
2023/04/20 07:30:38;;;;;;;19.75;15.05;;;11.60;99.90;;;;;;4957153;29;20051;-90
2023/04/20 07:33:03;;;;;;;17.30;14.63;;;11.30;99.90;;;;;;4956856;29;20019;-90
2023/04/20 07:35:29;;;;;;;17.30;14.43;;;11.50;99.90;;;;;;4956737;29;20031;-90
2023/04/20 07:37:55;;;;;;;19.70;15.45;;;11.70;99.90;;;;;;4957017;29;20046;-89
2023/04/20 07:40:20;;;;;;;18.05;14.55;;;11.60;99.90;;;;;;4957029;29;20532;-89
2023/04/20 07:42:46;;;;;;;16.05;13.80;;;11.80;99.90;;;;;;4958018;29;20027;-89
2023/04/20 07:45:12;;;;;;;16.85;15.02;;;11.80;99.90;;;;;;4939065;29;20035;-90
2023/04/20 07:47:39;;;;;;;18.50;14.75;;;12.10;99.90;;;;;;4958718;28;20019;-90
2023/04/20 07:50:06;;;;;;;16.70;14.43;;;11.90;99.90;;;;;;4975510;28;20037;-90
2023/04/20 07:52:32;;;;;;;16.95;14.98;;;11.70;99.90;;;;;;4975876;28;20049;-90
2023/04/20 07:54:58;;;;;;;17.58;15.40;;;11.80;99.90;;;;;;4975988;28;20054;-90
2023/04/20 07:57:28;;;;;;;17.60;15.70;;;11.90;99.90;;;;;;4976280;28;20026;-89
2023/04/20 07:59:54;;;;;;;17.25;15.30;;;11.90;99.90;;;;;;4977253;28;20062;-90
2023/04/20 08:02:20;;;;;;;19.83;15.52;;;12.00;99.90;;;;;;4975874;28;20054;-90
2023/04/20 08:04:45;;;;;;;16.80;15.00;;;11.80;99.90;;;;;;4975440;28;20081;-90
2023/04/20 08:07:11;;;;;;;20.17;14.35;;;11.80;99.90;;;;;;4976166;28;20026;-90
2023/04/20 08:09:37;;;;;;;18.10;15.30;;;11.70;99.90;;;;;;4975867;28;20031;-90
2023/04/20 08:12:03;;;;;;;17.40;15.00;;;11.60;99.90;;;;;;4974612;28;20130;-90
2023/04/20 08:14:29;;;;;;;16.77;15.00;;;11.50;99.90;;;;;;4975656;28;20100;-90
2023/04/20 08:16:55;;;;;;;17.40;14.40;;;11.60;99.90;;;;;;4976014;28;20030;-90
2023/04/20 08:19:21;;;;;;;18.70;14.73;;;11.60;99.90;;;;;;4975220;28;20445;-91
2023/04/20 08:21:46;;;;;;;16.25;14.13;;;11.60;99.90;;;;;;4975414;28;20019;-90
2023/04/20 08:24:12;;;;;;;15.60;13.85;;;11.80;99.90;;;;;;4975707;28;20038;-89
2023/04/20 08:26:38;;;;;;;17.65;14.50;;;11.60;99.90;;;;;;4975396;28;20034;-90
2023/04/20 08:29:04;;;;;;;16.88;14.35;;;11.40;99.90;;;;;;4975241;28;20077;-90
2023/04/20 08:31:30;;;;;;;15.95;14.23;;;11.30;99.90;;;;;;4974036;28;20035;-89
2023/04/20 08:33:56;;;;;;;18.75;14.02;;;11.30;99.90;;;;;;4975227;28;20039;-89
2023/04/20 08:36:22;;;;;;;19.35;14.65;;;11.10;99.90;;;;;;4975088;28;20538;-89
2023/04/20 08:38:55;;;;;;;15.45;13.68;;;11.00;99.90;;;;;;4975285;28;20053;-90
2023/04/20 08:41:21;;;;;;;15.95;13.10;;;11.00;99.90;;;;;;4974076;28;20030;-89
2023/04/20 08:43:48;;;;;;;15.10;11.80;;;11.00;99.90;;;;;;4973830;28;20027;-90
2023/04/20 08:46:15;;;;;;;14.05;11.98;;;11.00;99.90;;;;;;4974977;28;20030;-90
2023/04/20 08:48:44;;;;;;;13.07;11.77;;;11.00;99.90;;;;;;4974496;28;20023;-89
2023/04/20 08:51:09;;;;;;;16.85;12.40;;;10.90;99.90;;;;;;4974184;28;20093;-89
2023/04/20 08:53:35;;;;;;;13.77;11.43;;;10.80;99.90;;;;;;4974771;28;20035;-89
2023/04/20 08:56:01;;;;;;;13.02;11.50;;;11.00;99.90;;;;;;4974677;28;20027;-90
2023/04/20 08:58:31;;;;;;;13.13;11.45;;;11.00;99.90;;;;;;4973961;28;20130;-90
2023/04/20 09:00:59;;;;;;;14.27;12.77;;;11.10;99.90;;;;;;4974039;28;20182;-90
2023/04/20 09:03:39;;;;;;;14.13;12.23;;;11.20;99.90;;;;;;4974505;28;20158;-90
2023/04/20 09:06:13;;;;;;;13.90;12.25;;;11.50;99.90;;;;;;4973983;28;20077;-90
2023/04/20 09:08:40;;;;;;;16.02;12.32;;;11.50;99.90;;;;;;4974616;28;20146;-90
2023/04/20 09:11:24;;;;;;;14.55;12.48;;;11.50;99.90;;;;;;4974410;28;20031;-90
2023/04/20 09:14:11;;;;;;;15.27;13.60;;;11.30;99.90;;;;;;4974613;28;20026;-90
2023/04/20 09:17:00;;;;;;;14.55;13.02;;;11.40;99.90;;;;;;4974046;28;20106;-89
2023/04/20 09:19:28;;;;;;;17.15;14.50;;;11.60;99.90;;;;;;4973208;28;20447;-90
2023/04/20 09:21:57;;;;;;;13.77;12.38;;;11.80;99.90;;;;;;4970334;28;20038;-90
2023/04/20 09:24:32;;;;;;;13.35;11.73;;;11.90;99.90;;;;;;4954890;28;20115;-90
2023/04/20 09:27:00;;;;;;;14.30;12.35;;;12.10;99.90;;;;;;4955074;28;20038;-89
2023/04/20 09:29:25;;;;;;;14.27;12.60;;;12.00;99.90;;;;;;4969701;28;20045;-90
2023/04/20 09:31:51;;;;;;;13.90;11.57;;;12.00;99.90;;;;;;4972415;28;20031;-89
2023/04/20 09:34:18;;;;;;;11.75;10.55;;;12.00;99.90;;;;;;4970695;28;20027;-91
2023/04/20 09:36:53;;;;;;;12.38;10.98;;;11.90;99.90;;;;;;4954894;28;20408;-93
2023/04/20 09:39:22;;;;;;;12.45;11.25;;;11.80;99.90;;;;;;4958318;28;20175;-89
2023/04/20 09:41:50;;;;;;;11.45;10.35;;;11.80;99.90;;;;;;4974414;28;20034;-90
2023/04/20 09:44:17;;;;;;;11.90;10.70;;;11.80;99.90;;;;;;4973908;28;20031;-90
2023/04/20 09:46:44;;;;;;;12.52;10.77;;;12.10;99.90;;;;;;4980772;28;20030;-89
2023/04/20 09:49:11;;;;;;;12.65;11.10;;;11.90;99.90;;;;;;4973804;28;20015;-88
2023/04/20 09:51:43;;;;;;;10.65;9.55;;;11.90;99.90;;;;;;4970498;28;20039;-90
2023/04/20 09:54:10;;;;;;;11.10;10.00;;;12.00;99.90;;;;;;4954587;28;20054;-92
2023/04/20 09:56:37;;;;;;;10.98;9.77;;;12.00;99.90;;;;;;4958249;28;20035;-94
2023/04/20 09:59:03;;;;;;;11.05;9.88;;;11.80;99.90;;;;;;4966907;28;20062;-87
2023/04/20 10:01:32;;;;;;;10.63;9.52;;;11.60;99.90;;;;;;4973553;28;20399;-93
2023/04/20 10:03:59;;;;;;;11.63;9.75;;;11.60;99.90;;;;;;4963681;28;20043;-91
2023/04/20 10:06:28;;;;;;;11.30;9.35;;;11.70;99.90;;;;;;4954931;28;20023;-91
2023/04/20 10:08:54;;;;;;;13.15;9.73;;;11.70;99.90;;;;;;4965534;28;20035;-90
2023/04/20 10:11:24;;;;;;;10.70;9.60;;;11.80;99.90;;;;;;4977234;28;20046;-90
2023/04/20 10:13:50;;;;;;;10.68;9.43;;;11.70;99.90;;;;;;4965957;28;20035;-91
2023/04/20 10:16:19;;;;;;;10.45;9.15;;;11.70;99.90;;;;;;4963744;28;20034;-90
2023/04/20 10:19:02;;;;;;;11.55;9.77;;;11.60;99.90;;;;;;4977201;28;20030;-92
2023/04/20 10:21:31;;;;;;;10.23;9.23;;;11.40;99.90;;;;;;4977916;28;20030;-94
2023/04/20 10:23:59;;;;;;;10.70;9.60;;;11.40;99.90;;;;;;4965260;28;20079;-90
2023/04/20 10:26:38;;;;;;;9.63;8.63;;;11.40;99.90;;;;;;4973800;28;20029;-87
2023/04/20 10:29:07;;;;;;;9.60;8.60;;;11.40;99.90;;;;;;4970271;28;20031;-92
2023/04/20 10:31:40;;;;;;;8.68;7.78;;;11.30;99.90;;;;;;4958521;28;20078;-93
2023/04/20 10:34:07;;;;;;;9.57;7.38;;;11.30;99.90;;;;;;4962477;28;20039;-88
2023/04/20 10:36:37;;;;;;;8.45;7.00;;;11.20;99.90;;;;;;4974691;28;20113;-89
2023/04/20 10:39:16;;;;;;;8.35;7.38;;;11.10;99.90;;;;;;4957760;28;20094;-89
2023/04/20 10:41:53;;;;;;;7.65;6.93;;;11.00;99.90;;;;;;4972673;28;20467;-88
2023/04/20 10:44:19;;;;;;;11.07;9.98;;;11.00;99.90;;;;;;4973944;28;20027;-88
2023/04/20 10:46:49;;;;;;;10.88;9.10;;;11.00;99.90;;;;;;4972802;28;20502;-91
2023/04/20 10:49:15;;;;;;;8.85;7.80;;;11.00;99.90;;;;;;4975515;28;20031;-91
2023/04/20 10:51:48;;;;;;;9.23;7.18;;;11.00;99.90;;;;;;4970382;28;20051;-95
2023/04/20 10:54:15;;;;;;;7.88;7.10;;;11.00;99.90;;;;;;4970971;28;20455;-94
2023/04/20 10:56:45;;;;;;;8.32;7.50;;;11.40;99.90;;;;;;4986084;28;20109;-93
2023/04/20 10:59:13;;;;;;;8.27;7.45;;;11.20;99.90;;;;;;4964986;28;20051;-90
2023/04/20 11:01:39;;;;;;;8.27;7.15;;;11.40;99.90;;;;;;4963767;28;20050;-91
2023/04/20 11:04:06;;;;;;;8.95;6.70;;;11.60;99.90;;;;;;4970590;28;20039;-89
2023/04/20 11:06:33;;;;;;;7.75;6.95;;;11.40;99.90;;;;;;4957028;29;20058;-90
2023/04/20 11:08:59;;;;;;;8.50;7.60;;;11.50;99.90;;;;;;4967720;28;20027;-91
2023/04/20 11:11:27;;;;;;;8.43;7.63;;;11.30;99.90;;;;;;4987641;28;20057;-91
2023/04/20 11:14:08;;;;;;;7.25;6.50;;;11.20;99.90;;;;;;4995481;28;20022;-91
2023/04/20 11:16:35;;;;;;;7.05;6.35;;;10.80;99.90;;;;;;4995921;28;20057;-91
2023/04/20 11:19:02;;;;;;;8.32;7.20;;;10.60;99.90;;;;;;4976744;28;20078;-89
2023/04/20 11:21:40;;;;;;;9.55;6.97;;;10.70;99.90;;;;;;4976846;28;20051;-90
2023/04/20 11:24:18;;;;;;;8.23;6.70;;;10.80;99.90;;;;;;4967543;28;20043;-88
2023/04/20 11:26:44;;;;;;;9.35;7.30;;;11.00;99.90;;;;;;4970824;28;20039;-90
2023/04/20 11:29:10;;;;;;;8.40;6.70;;;11.00;99.90;;;;;;4977112;28;20041;-89
2023/04/20 11:31:36;;;;;;;7.32;6.55;;;11.30;99.90;;;;;;4974643;28;20031;-89
2023/04/20 11:34:03;;;;;;;7.47;6.18;;;11.40;99.90;;;;;;4971712;28;20035;-89
2023/04/20 11:36:29;;;;;;;6.63;5.93;;;11.20;99.90;;;;;;4959836;28;20122;-89
2023/04/20 11:39:06;;;;;;;8.02;6.25;;;11.30;99.90;;;;;;4955624;29;20061;-89
2023/04/20 11:41:32;;;;;;;8.20;6.78;;;11.30;99.90;;;;;;4956163;29;20019;-88
2023/04/20 11:43:58;;;;;;;7.20;6.50;;;11.60;99.90;;;;;;4956760;29;20039;-89
2023/04/20 11:46:24;;;;;;;8.07;6.40;;;11.50;99.90;;;;;;4973571;28;20100;-88
2023/04/20 11:48:49;;;;;;;6.75;6.07;;;11.60;99.90;;;;;;4993880;28;20026;-88
2023/04/20 11:51:15;;;;;;;7.10;6.40;;;11.80;99.90;;;;;;4995392;28;20034;-88
2023/04/20 11:53:41;;;;;;;6.35;5.65;;;11.90;99.90;;;;;;4995149;28;20041;-88
2023/04/20 11:56:07;;;;;;;7.57;6.22;;;12.10;99.90;;;;;;4994450;28;20027;-88
2023/04/20 11:58:33;;;;;;;6.32;5.72;;;12.20;99.90;;;;;;4989669;28;20404;-88
2023/04/20 12:00:59;;;;;;;8.48;6.15;;;12.40;99.90;;;;;;4973992;28;20039;-89
2023/04/20 12:03:25;;;;;;;8.38;6.68;;;12.30;99.90;;;;;;4975296;28;20027;-88
2023/04/20 12:05:51;;;;;;;6.50;5.90;;;12.30;99.90;;;;;;4975209;28;20122;-88
2023/04/20 12:08:17;;;;;;;5.60;5.10;;;12.40;99.90;;;;;;4974351;28;20123;-88
2023/04/20 12:10:42;;;;;;;6.75;5.85;;;12.50;99.90;;;;;;4974698;28;20463;-89
2023/04/20 12:13:08;;;;;;;7.35;5.78;;;12.60;99.90;;;;;;4975062;28;20542;-88
2023/04/20 12:15:34;;;;;;;5.97;5.38;;;12.90;99.90;;;;;;4973896;28;20391;-89
2023/04/20 12:17:59;;;;;;;6.10;5.50;;;13.30;99.90;;;;;;4974872;28;20031;-88
2023/04/20 12:20:25;;;;;;;6.28;5.68;;;14.20;99.90;;;;;;4975335;28;20034;-89
2023/04/20 12:22:50;;;;;;;6.95;5.68;;;15.50;99.90;;;;;;4974929;28;20027;-88
2023/04/20 12:25:16;;;;;;;6.18;5.57;;;15.90;99.90;;;;;;4972983;28;20078;-88
2023/04/20 12:27:42;;;;;;;6.03;5.53;;;16.60;99.90;;;;;;4974704;28;20030;-88
2023/04/20 12:30:08;;;;;;;5.88;5.38;;;17.20;99.90;;;;;;4974700;28;20037;-88
2023/04/20 12:32:34;;;;;;;6.40;5.80;;;16.40;99.90;;;;;;4974766;28;20027;-88
2023/04/20 12:34:59;;;;;;;6.25;5.65;;;15.90;99.90;;;;;;4974757;28;20110;-88